Home > Products > Valid Products > TAF

000
FTUS42 KTAE 200900 AAA
TAFTLH
TAF AMD
KTLH 200901Z 2009/2106 04004KT P6SM BKN007
     FM201300 03007KT P6SM BKN020
     FM201800 03007KT P6SM SCT030
     FM202100 02007KT P6SM VCSH BKN040=



000
FTUS42 KTAE 200700 AAA
TAFVLD
TAF AMD
KVLD 200721Z 2007/2106 04004KT P6SM SKC
     FM200930 04006KT P6SM BKN007
     FM201400 04007KT P6SM BKN012
     FM201700 04008KT P6SM VCSH SCT030
     FM201900 05008KT P6SM VCTS BKN030CB=



000
FTUS42 KTAE 200700 AAA
TAFDHN
TAF AMD
KDHN 200720Z 2007/2106 05004KT P6SM SKC
     FM200900 05005KT P6SM BKN007
     FM201300 05010KT P6SM BKN010
     FM201500 06010KT P6SM SCT030=



000
FTUS42 KTAE 200600 AAA
TAFABY
TAF AMD
KABY 200619Z 2006/2106 05005KT P6SM BKN007
     FM201500 04010KT P6SM BKN020
     FM201800 04010KT P6SM SCT030
     FM202000 04010KT P6SM VCSH BKN040=



000
FTUS42 KTAE 200500
TAFTLH
TAF
KTLH 200520Z 2006/2106 05005KT P6SM SKC
     FM201200 03007KT P6SM BKN007
     FM201500 03007KT P6SM BKN020
     FM201800 03007KT P6SM SCT030
     FM202100 02007KT P6SM VCSH BKN040=



000
FTUS42 KTAE 200500
TAFVLD
TAF
KVLD 200520Z 2006/2106 04004KT P6SM SKC
     FM201000 04006KT P6SM BKN007
     FM201400 04007KT P6SM BKN012
     FM201700 04008KT P6SM VCSH SCT030
     FM201900 05008KT P6SM VCTS BKN030CB=



000
FTUS42 KTAE 200500
TAFABY
TAF
KABY 200520Z 2006/2106 05005KT P6SM SKC
     FM201200 04008KT P6SM BKN007
     FM201500 04010KT P6SM BKN020
     FM201800 04010KT P6SM SCT030
     FM202000 04010KT P6SM VCSH BKN040=



000
FTUS42 KTAE 200500
TAFDHN
TAF
KDHN 200520Z 2006/2106 05004KT P6SM SKC
     FM201200 05010KT P6SM SCT010
     FM201400 06010KT P6SM SCT030=



000
FTUS42 KTAE 192300
TAFTLH
TAF
KTLH 192320Z 2000/2024 09005KT P6SM FEW025 SCT040
     FM200900 07005KT 6SM BR FEW007 BKN030
     FM201500 05009KT P6SM FEW010 SCT035 OVC250
     FM201900 04010KT P6SM VCSH FEW030 SCT045 OVC250=



000
FTUS42 KTAE 192300
TAFDHN
TAF
KDHN 192320Z 2000/2024 10007KT P6SM SCT040
     FM200900 08005KT P6SM SCT025 BKN250
     FM201600 06008KT P6SM FEW030 SCT040 BKN250=



000
FTUS42 KTAE 192300
TAFVLD
TAF
KVLD 192320Z 2000/2024 10005KT P6SM SCT040 OVC250
     FM200600 07004KT 5SM BR FEW004 BKN009
     FM201500 06005KT P6SM FEW010 SCT015 BKN250
     FM201800 04010KT P6SM VCSH SCT045 BKN250=



000
FTUS42 KTAE 192300
TAFABY
TAF
KABY 192320Z 2000/2024 09005KT P6SM SCT040 OVC250
     FM200900 07004KT 6SM BR FEW008 BKN025
     FM201500 06009KT P6SM FEW030 SCT045 BKN250
     FM202000 04008KT P6SM VCSH SCT045 BKN250=



000
FTUS42 KTAE 191900 AAA
TAFTLH
TAF AMD
KTLH 191936Z 1920/2018 09007KT P6SM SCT040 OVC250
      TEMPO 1920/1924 3SM TSRA BKN025CB
     FM200900 08005KT P6SM BKN007
     FM201400 06009KT P6SM SCT009 BKN025=



000
FTUS42 KTAE 191900 AAA
TAFVLD
TAF AMD
KVLD 191936Z 1920/2018 09005KT P6SM SCT040 OVC250
      TEMPO 1920/1924 3SM TSRA BKN025CB
     FM200900 04004KT 4SM BR BKN007
     FM201500 06007KT P6SM SCT009 BKN015=



000
FTUS42 KTAE 191900 AAA
TAFABY
TAF AMD
KABY 191935Z 1920/2018 08008KT P6SM SCT040 OVC250
      TEMPO 1920/1924 3SM TSRA BR BKN025CB
     FM201000 07005KT P6SM SCT009 BKN015
     FM201400 06010KT P6SM BKN025=



000
FTUS42 KTAE 191700 CCA
TAFVLD
TAF COR
KVLD 191759Z 1918/2018 09005KT P6SM SCT040 OVC250
      TEMPO 1918/1922 3SM SHRA BR BKN025
     FM200900 04004KT 4SM BR BKN007
     FM201500 06007KT P6SM SCT009 BKN015=



000
FTUS42 KTAE 191700
TAFABY
TAF
KABY 191724Z 1918/2018 08008KT P6SM SCT040 OVC250
      TEMPO 1918/1922 3SM SHRA BR BKN025
     FM201000 07005KT P6SM SCT009 BKN015
     FM201400 06010KT P6SM BKN025=



000
FTUS42 KTAE 191700
TAFTLH
TAF
KTLH 191724Z 1918/2018 09006KT P6SM SCT040 OVC250
     FM200900 08005KT P6SM BKN007
     FM201400 06009KT P6SM SCT009 BKN025=



000
FTUS42 KTAE 191700
TAFDHN
TAF
KDHN 191724Z 1918/2018 10008KT P6SM SCT040
     FM201100 08005KT P6SM SCT009 BKN015
     FM201400 07009KT P6SM SCT025=



000
FTUS42 KTAE 191700
TAFVLD
TAF
KVLD 191724Z 1918/2018 07005KT P6SM SCT040 OVC250
      TEMPO 1920/1924 3SM SHRA BR BKN025
     FM200900 04004KT 4SM BR BKN007
     FM201500 06007KT P6SM SCT009 BKN015=



000
FTUS42 KTAE 191100
TAFABY
TAF
KABY 191120Z 1912/2012 06004KT P6SM BKN250
     FM191400 08005KT P6SM SCT120 BKN250 PROB30 1922/2002 5SM SHRA
      BKN060 OVC100
     FM200400 06003KT P6SM SCT250=



000
FTUS42 KTAE 191100
TAFDHN
TAF
KDHN 191120Z 1912/2012 13003KT P6SM BKN250
     FM191500 10006KT P6SM SCT100 BKN250
     FM200300 07003KT P6SM SKC=



000
FTUS42 KTAE 191100
TAFTLH
TAF
KTLH 191120Z 1912/2012 05004KT P6SM SCT150 OVC250
     FM191500 06005KT P6SM SCT050 BKN100 PROB30 1922/2002 5SM SHRA
      BKN040 OVC080
     FM200400 07004KT P6SM SCT100 BKN250
     FM200900 05003KT P6SM SCT250=



000
FTUS42 KTAE 191100
TAFVLD
TAF
KVLD 191120Z 1912/2012 04003KT P6SM OVC250
     FM191500 10005KT P6SM SCT050 BKN100
      TEMPO 1920/1924 5SM SHRA BKN040 OVC100
     FM200300 06003KT P6SM SCT100 BKN250
     FM200900 00000KT P6SM SCT250=



000
FTUS42 KTAE 190500
TAFTLH
TAF
KTLH 190538Z 1906/2006 00000KT P6SM SCT150 OVC250
     FM191500 08006KT P6SM SCT030 BKN100 PROB30 1922/2002 5SM SHRA
      BKN030 OVC080
     FM200400 07004KT P6SM SCT100 BKN250=



000
FTUS42 KTAE 190500
TAFDHN
TAF
KDHN 190538Z 1906/2006 04004KT P6SM BKN250
     FM191500 10006KT P6SM SCT100 BKN250
     FM200300 07004KT P6SM SKC=



000
FTUS42 KTAE 190500
TAFABY
TAF
KABY 190538Z 1906/2006 07003KT P6SM BKN250
     FM191400 08006KT P6SM SCT100 BKN250 PROB30 1920/1924 5SM SHRA
      BKN040 OVC090
     FM200400 06003KT P6SM SCT250=



000
FTUS42 KTAE 190500
TAFVLD
TAF
KVLD 190538Z 1906/2006 01004KT P6SM BKN250
      TEMPO 1909/1912 4SM BR SCT007
     FM191500 10005KT P6SM SCT030 BKN100
      TEMPO 1920/1924 4SM TSRA BKN025CB OVC070
     FM200300 00000KT P6SM SCT100 BKN250=



000
FTUS42 KTAE 182300
TAFTLH
TAF
KTLH 182320Z 1900/1924 00000KT P6SM FEW090 BKN250
     FM191500 09006KT P6SM SCT050 BKN250=



000
FTUS42 KTAE 182300
TAFABY
TAF
KABY 182320Z 1900/1924 00000KT P6SM SCT250
     FM191400 09007KT P6SM SCT050 BKN250=



000
FTUS42 KTAE 182300
TAFDHN
TAF
KDHN 182320Z 1900/1924 00000KT P6SM BKN250
     FM191500 10008KT P6SM SCT050 SCT250=



000
FTUS42 KTAE 182300
TAFVLD
TAF
KVLD 182320Z 1900/1924 00000KT P6SM SCT250
     FM190900 00000KT 4SM BR SCT007 SCT250
      TEMPO 1909/1913 BKN007
     FM191300 12004KT P6SM BKN250
     FM191900 10006KT P6SM VCTS SCT050CB BKN250=



000
FTUS42 KTAE 181700
TAFVLD
TAF
KVLD 181720Z 1818/1918 32003KT P6SM SCT250
     FM190200 00000KT P6SM BKN250
     FM190900 00000KT 4SM BR OVC007
     FM191400 12004KT P6SM BKN250=



000
FTUS42 KTAE 181700
TAFTLH
TAF
KTLH 181720Z 1818/1918 33005KT P6SM BKN250
     FM190900 00000KT P6SM OVC100
     FM191500 08004KT P6SM BKN250=



000
FTUS42 KTAE 181700
TAFABY
TAF
KABY 181720Z 1818/1918 02005KT P6SM BKN250
     FM190300 00000KT P6SM SCT250
     FM191400 09007KT P6SM BKN250=



000
FTUS42 KTAE 181700
TAFDHN
TAF
KDHN 181720Z 1818/1918 04005KT P6SM BKN250
     FM190500 00000KT P6SM SCT250
     FM191400 09006KT P6SM SCT250=



000
FTUS42 KTAE 181100
TAFABY
TAF
KABY 181121Z 1812/1912 00000KT P6SM SCT250
     FM181500 02005KT P6SM BKN250
     FM190300 00000KT P6SM SCT250=



000
FTUS42 KTAE 181100
TAFVLD
TAF
KVLD 181121Z 1812/1912 00000KT 5SM BR SKC
     FM181300 32003KT P6SM FEW250
     FM181900 30005KT P6SM SCT050 BKN250
     FM190200 00000KT P6SM BKN250
     FM190800 00000KT 4SM BR BKN250=



000
FTUS42 KTAE 181100
TAFDHN
TAF
KDHN 181121Z 1812/1912 00000KT 6SM BR SCT250
     FM181400 36005KT P6SM BKN250
     FM190500 00000KT P6SM SCT250=



000
FTUS42 KTAE 181100
TAFTLH
TAF
KTLH 181121Z 1812/1912 VRB03KT P6SM SCT250
     FM181400 33005KT P6SM BKN250
     FM182000 21007KT P6SM SCT050 BKN250
     FM190300 00000KT P6SM BKN250=



000
FTUS42 KTAE 181000 AAA
TAFDHN
TAF AMD
KDHN 181001Z 1810/1906 00000KT P6SM SCT250
      TEMPO 1811/1812 5SM BR
     FM181400 35005KT P6SM BKN250
     FM190400 00000KT P6SM SCT250=



000
FTUS42 KTAE 181000 AAA
TAFABY
TAF AMD
KABY 181001Z 1810/1906 00000KT P6SM FEW250
     FM181400 36005KT P6SM SCT250
     FM190300 00000KT P6SM BKN250=



000
FTUS42 KTAE 180600 AAA
TAFVLD
TAF AMD
KVLD 180658Z 1807/1906 00000KT 5SM BR SKC
     FM180900 00000KT 3SM BR SCT002
     FM181300 00000KT P6SM SKC
     FM181900 30005KT P6SM SCT050
     FM190200 00000KT P6SM SKC=



000
FTUS42 KTAE 180500
TAFDHN
TAF
KDHN 180520Z 1806/1906 20003KT P6SM SCT250
      TEMPO 1809/1812 4SM BR FEW008
     FM181400 35005KT P6SM FEW250
     FM190400 00000KT P6SM SKC=



000
FTUS42 KTAE 180500
TAFTLH
TAF
KTLH 180520Z 1806/1906 30003KT P6SM SCT110
     FM181400 33005KT P6SM SKC
     FM181900 28007KT P6SM SCT060
     FM190200 00000KT P6SM SCT250=



000
FTUS42 KTAE 180500
TAFABY
TAF
KABY 180520Z 1806/1906 00000KT P6SM FEW060
      TEMPO 1810/1812 5SM BR
     FM181400 03005KT P6SM SKC
     FM190300 00000KT P6SM SKC=



000
FTUS42 KTAE 180500
TAFVLD
TAF
KVLD 180520Z 1806/1906 00000KT P6SM SKC
     FM180900 00000KT 4SM BR SCT002
     FM181300 00000KT P6SM SKC
     FM181900 30005KT P6SM SCT050
     FM190200 00000KT P6SM SKC=



000
FTUS42 KTAE 172300
TAFVLD
TAF
KVLD 172320Z 1800/1824 00000KT P6SM SKC
     FM180800 00000KT 3SM BR SCT002 SCT250
     FM181300 VRB03KT P6SM SCT250=



000
FTUS42 KTAE 172300
TAFTLH
TAF
KTLH 172320Z 1800/1824 23008KT P6SM VCTS SCT050CB SCT250
     FM180100 00000KT P6SM FEW250
      TEMPO 1810/1812 5SM BR
     FM181300 30005KT P6SM FEW250
     FM182000 25008KT P6SM SKC=



000
FTUS42 KTAE 172300
TAFABY
TAF
KABY 172320Z 1800/1824 33003KT P6SM SKC
      TEMPO 1810/1812 5SM BR
     FM181300 33005KT P6SM FEW250=



000
FTUS42 KTAE 172300
TAFDHN
TAF
KDHN 172320Z 1800/1824 31003KT P6SM SKC
      TEMPO 1810/1812 5SM BR
     FM181300 36005KT P6SM FEW250=



000
FTUS42 KTAE 171700
TAFABY
TAF
KABY 171723Z 1718/1818 33005KT P6SM SCT050
     FM180300 00000KT P6SM SKC=



000
FTUS42 KTAE 171700
TAFDHN
TAF
KDHN 171723Z 1718/1818 34007KT P6SM FEW050
     FM180300 35003KT P6SM SKC=



000
FTUS42 KTAE 171700
TAFVLD
TAF
KVLD 171723Z 1718/1818 00000KT P6SM SCT040 SCT250
     FM180200 00000KT P6SM SKC
     FM180900 00000KT 4SM BR SCT250
     FM181400 16002KT P6SM SCT250=



000
FTUS42 KTAE 171700
TAFTLH
TAF
KTLH 171723Z 1718/1818 28003KT P6SM SCT040 SCT250=



000
FTUS42 KTAE 171300 AAA
TAFDHN
TAF AMD
KDHN 171301Z 1713/1812 04003KT P6SM FEW050
      TEMPO 1713/1714 1 1/2SM BR
     FM171400 34007KT P6SM FEW050
     FM180300 35003KT P6SM SKC=



000
FTUS42 KTAE 171200 AAA
TAFABY
TAF AMD
KABY 171218Z 1712/1812 00000KT P6SM SKC
     FM171600 33005KT P6SM SCT050
     FM180300 00000KT P6SM SKC=



000
FTUS42 KTAE 171100
TAFDHN
TAF
KDHN 171139Z 1712/1812 33003KT 3SM BR SCT003
      TEMPO 1712/1714 1 1/2SM BR
     FM171400 34007KT P6SM FEW050
     FM180300 35003KT P6SM SKC=



000
FTUS42 KTAE 171100
TAFVLD
TAF
KVLD 171139Z 1712/1812 00000KT 5SM BR SCT003 BKN250
      TEMPO 1712/1713 2SM BR SCT001
     FM171400 01004KT P6SM SCT010 SCT250
     FM171800 00000KT P6SM SCT040 SCT250
     FM180200 00000KT P6SM SKC
     FM180900 00000KT 4SM BR SKC=



000
FTUS42 KTAE 171100
TAFABY
TAF
KABY 171139Z 1712/1812 00000KT P6SM SKC
      TEMPO 1712/1714 4SM BR SCT003
     FM171600 33005KT P6SM SCT050
     FM180300 00000KT P6SM SKC=



000
FTUS42 KTAE 171100
TAFTLH
TAF
KTLH 171139Z 1712/1812 00000KT P6SM BKN250
     FM171400 34004KT P6SM SCT250
     FM172000 30007KT P6SM SCT050 SCT250
     FM180300 00000KT P6SM SKC=



000
FTUS42 KTAE 171000 AAE
TAFVLD
TAF AMD
KVLD 171006Z 1710/1806 00000KT 5SM BR SCT002 BKN250
      TEMPO 1710/1713 2SM BR BKN002
     FM171400 01004KT P6SM SCT010 SCT250
     FM171800 00000KT P6SM SCT040 SCT250
     FM180200 00000KT P6SM SKC=



000
FTUS42 KTAE 171000 AAA
TAFABY
TAF AMD
KABY 171004Z 1710/1806 00000KT P6SM SKC
      TEMPO 1710/1713 4SM BR SCT003
     FM171400 36005KT P6SM SCT250
     FM180300 00000KT P6SM SKC=



000
FTUS42 KTAE 171000 AAB
TAFDHN
TAF AMD
KDHN 171003Z 1710/1806 33003KT P6SM SKC
      TEMPO 1710/1713 3SM BR SCT003
     FM171400 34005KT P6SM FEW250
     FM180100 32003KT P6SM SKC=



    US Dept of Commerce
    National Oceanic and Atmospheric Administration
    National Weather Service
    1325 East West Highway
    Silver Spring, MD 20910
    Page Author: NWS Internet Services Team
Disclaimer
Information Quality
Credits
Glossary
Privacy Policy
Freedom of Information Act (FOIA)
About Us
Career Opportunities